createdAt,value
2023-04-14T00:00:41.896Z,3.00
2023-04-14T00:03:10.257Z,3.13
2023-04-14T00:05:37.778Z,3.10
2023-04-14T00:08:04.974Z,3.65
2023-04-14T00:10:32.639Z,3.33
2023-04-14T00:13:01.514Z,3.28
2023-04-14T00:15:28.484Z,3.22
2023-04-14T00:17:55.510Z,3.50
2023-04-14T00:20:22.548Z,3.00
2023-04-14T00:22:49.817Z,3.38
2023-04-14T00:25:17.804Z,3.17
2023-04-14T00:27:45.335Z,3.20
2023-04-14T00:30:12.886Z,3.17
2023-04-14T00:32:39.893Z,2.85
2023-04-14T00:35:07.856Z,3.10
2023-04-14T00:37:34.768Z,2.58
2023-04-14T00:40:02.646Z,2.60
2023-04-14T00:42:29.852Z,2.65
2023-04-14T00:44:57.405Z,2.40
2023-04-14T00:47:25.026Z,2.40
2023-04-14T00:49:52.112Z,2.53
2023-04-14T00:52:21.086Z,2.53
2023-04-14T00:54:48.669Z,2.55
2023-04-14T00:57:16.066Z,3.10
2023-04-14T00:59:43.278Z,2.60
2023-04-14T01:02:11.142Z,2.50
2023-04-14T01:04:52.652Z,2.35
2023-04-14T01:07:24.437Z,2.78
2023-04-14T01:09:54.518Z,2.60
2023-04-14T01:12:48.708Z,2.47
2023-04-14T01:15:34.132Z,2.60
2023-04-14T01:18:21.909Z,2.43
2023-04-14T01:20:56.598Z,2.38
2023-04-14T01:23:28.040Z,2.78
2023-04-14T01:26:27.625Z,2.38
2023-04-14T01:29:09.741Z,2.70
2023-04-14T01:32:03.566Z,2.40
2023-04-14T01:34:46.201Z,2.75
2023-04-14T01:37:17.201Z,2.63
2023-04-14T01:39:53.859Z,2.47
2023-04-14T01:42:26.760Z,2.42
2023-04-14T01:44:58.876Z,2.80
2023-04-14T01:47:28.983Z,2.92
2023-04-14T01:50:03.598Z,2.45
2023-04-14T01:52:32.606Z,2.60
2023-04-14T01:55:05.984Z,2.67
2023-04-14T01:57:36.772Z,2.38
2023-04-14T02:00:07.801Z,2.60
2023-04-14T02:02:44.638Z,2.67
2023-04-14T02:05:13.960Z,2.85
2023-04-14T02:07:44.661Z,2.30
2023-04-14T02:10:13.784Z,2.25
2023-04-14T02:12:48.395Z,2.33
2023-04-14T02:15:18.805Z,2.57
2023-04-14T02:17:49.612Z,2.42
2023-04-14T02:20:18.046Z,2.70
2023-04-14T02:22:45.433Z,2.40
2023-04-14T02:25:12.780Z,2.80
2023-04-14T02:27:55.123Z,2.33
2023-04-14T02:30:27.779Z,2.45
2023-04-14T02:33:01.959Z,2.40
2023-04-14T02:35:38.493Z,2.35
2023-04-14T02:38:16.306Z,2.53
2023-04-14T02:40:45.120Z,2.38
2023-04-14T02:43:36.845Z,2.47
2023-04-14T02:46:05.487Z,2.45
2023-04-14T02:48:35.970Z,2.63
2023-04-14T02:51:05.279Z,2.58
2023-04-14T02:53:33.359Z,2.78
2023-04-14T02:56:08.861Z,2.38
2023-04-14T02:58:40.466Z,2.55
2023-04-14T03:01:09.029Z,2.75
2023-04-14T03:03:37.948Z,3.05
2023-04-14T03:06:09.539Z,3.13
2023-04-14T03:08:39.771Z,3.13
2023-04-14T03:11:08.740Z,2.80
2023-04-14T03:13:38.046Z,3.08
2023-04-14T03:16:07.003Z,2.67
2023-04-14T03:18:37.077Z,2.80
2023-04-14T03:21:05.873Z,2.50
2023-04-14T03:23:34.036Z,2.83
2023-04-14T03:26:05.936Z,3.00
2023-04-14T03:28:37.565Z,3.38
2023-04-14T03:31:09.516Z,2.53
2023-04-14T03:33:55.764Z,2.80
2023-04-14T03:36:26.224Z,2.72
2023-04-14T03:39:01.556Z,3.17
2023-04-14T03:41:36.246Z,2.70
2023-04-14T03:44:05.380Z,2.63
2023-04-14T03:46:32.745Z,2.95
2023-04-14T03:49:02.443Z,2.97
2023-04-14T03:51:32.399Z,3.10
2023-04-14T03:54:02.494Z,3.40
2023-04-14T03:56:31.455Z,3.08
2023-04-14T03:59:00.728Z,3.13
2023-04-14T04:01:31.970Z,3.10
2023-04-14T04:04:02.314Z,2.63
2023-04-14T04:06:29.903Z,2.90
2023-04-14T04:09:00.184Z,2.95
2023-04-14T04:11:27.850Z,3.00
2023-04-14T04:13:57.153Z,3.03
2023-04-14T04:16:27.843Z,3.30
2023-04-14T04:18:55.629Z,3.00
2023-04-14T04:21:32.534Z,3.20
2023-04-14T04:24:02.017Z,4.18
2023-04-14T04:26:30.046Z,3.55
2023-04-14T04:28:58.406Z,3.10
2023-04-14T04:31:28.413Z,2.58
2023-04-14T04:34:00.191Z,3.35
2023-04-14T04:36:28.951Z,3.97
2023-04-14T04:38:57.138Z,3.90
2023-04-14T04:41:27.468Z,4.15
2023-04-14T04:43:56.835Z,4.35
2023-04-14T04:46:44.753Z,4.22
2023-04-14T04:49:12.188Z,3.50
2023-04-14T04:51:39.326Z,3.28
2023-04-14T04:54:08.237Z,3.65
2023-04-14T04:56:36.742Z,3.45
2023-04-14T04:59:04.140Z,3.78
2023-04-14T05:01:31.334Z,3.38
2023-04-14T05:03:58.566Z,3.47
2023-04-14T05:06:26.481Z,4.55
2023-04-14T05:08:55.397Z,4.25
2023-04-14T05:11:24.760Z,5.40
2023-04-14T05:13:51.750Z,5.10
2023-04-14T05:16:19.867Z,5.90
2023-04-14T05:18:47.153Z,5.95
2023-04-14T05:21:16.817Z,4.78
2023-04-14T05:23:44.960Z,4.55
2023-04-14T05:28:43.435Z,4.35
2023-04-14T05:31:10.736Z,4.15
2023-04-14T05:33:37.744Z,4.55
2023-04-14T05:36:04.889Z,4.32
2023-04-14T05:38:31.809Z,4.38
2023-04-14T05:40:58.874Z,4.45
2023-04-14T05:43:27.163Z,4.20
2023-04-14T05:45:54.719Z,4.80
2023-04-14T05:48:25.733Z,4.45
2023-04-14T05:50:53.927Z,4.32
2023-04-14T05:53:20.970Z,4.50
2023-04-14T05:55:51.078Z,4.47
2023-04-14T05:58:18.329Z,5.13
2023-04-14T06:00:45.413Z,5.00
2023-04-14T06:03:12.647Z,5.32
2023-04-14T06:05:41.330Z,4.22
2023-04-14T06:08:08.691Z,3.85
2023-04-14T06:10:37.394Z,4.63
2023-04-14T06:13:05.776Z,5.82
2023-04-14T06:15:33.822Z,5.38
2023-04-14T06:18:01.265Z,5.00
2023-04-14T06:20:29.580Z,4.95
2023-04-14T06:22:57.737Z,5.07
2023-04-14T06:25:24.744Z,4.80
2023-04-14T06:27:51.884Z,5.07
2023-04-14T06:30:20.094Z,5.03
2023-04-14T06:32:48.755Z,4.22
2023-04-14T06:35:29.660Z,4.53
2023-04-14T06:37:59.801Z,4.30
2023-04-14T06:40:27.081Z,4.63
2023-04-14T06:42:54.856Z,3.97
2023-04-14T06:45:23.103Z,4.10
2023-04-14T06:47:50.520Z,5.00
2023-04-14T06:50:17.729Z,4.82
2023-04-14T06:52:44.795Z,5.00
2023-04-14T06:55:11.758Z,4.30
2023-04-14T06:57:38.903Z,4.43
2023-04-14T07:00:07.413Z,4.05
2023-04-14T07:02:34.647Z,4.53
2023-04-14T07:05:02.007Z,4.35
2023-04-14T07:07:29.131Z,4.03
2023-04-14T07:09:56.082Z,4.32
2023-04-14T07:12:23.117Z,4.53
2023-04-14T07:14:52.751Z,4.78
2023-04-14T07:17:20.081Z,5.15
2023-04-14T07:19:47.552Z,6.57
2023-04-14T07:22:15.302Z,6.38
2023-04-14T07:24:42.505Z,6.45
2023-04-14T07:27:15.649Z,6.45
2023-04-14T07:29:43.179Z,6.97
2023-04-14T07:32:12.060Z,6.35
2023-04-14T07:34:44.036Z,6.10
2023-04-14T07:37:11.462Z,5.47
2023-04-14T07:39:38.894Z,6.28
2023-04-14T07:42:06.901Z,4.72
2023-04-14T07:44:34.468Z,4.13
2023-04-14T07:47:03.770Z,3.88
2023-04-14T07:49:31.658Z,3.50
2023-04-14T07:52:00.798Z,3.78
2023-04-14T07:54:30.347Z,3.58
2023-04-14T07:56:58.090Z,3.55
2023-04-14T07:59:25.391Z,3.50
2023-04-14T08:01:54.598Z,3.30
2023-04-14T08:04:23.570Z,3.45
2023-04-14T08:06:50.611Z,3.30
2023-04-14T08:09:17.708Z,2.65
2023-04-14T08:11:44.809Z,3.25
2023-04-14T08:14:12.101Z,2.90
2023-04-14T08:16:39.139Z,2.97
2023-04-14T08:19:06.336Z,2.35
2023-04-14T08:21:33.342Z,2.35
2023-04-14T08:24:00.477Z,2.50
2023-04-14T08:26:30.018Z,2.58
2023-04-14T08:28:57.575Z,2.08
2023-04-14T08:31:26.699Z,2.20
2023-04-14T08:33:53.785Z,2.47
2023-04-14T08:36:21.151Z,2.50
2023-04-14T08:38:48.181Z,2.45
2023-04-14T08:41:19.515Z,2.67
2023-04-14T08:43:46.687Z,2.58
2023-04-14T08:46:15.010Z,2.80
2023-04-14T08:48:45.959Z,2.63
2023-04-14T08:51:26.319Z,2.65
2023-04-14T08:53:57.889Z,2.60
2023-04-14T08:56:30.160Z,2.17
2023-04-14T08:58:57.922Z,2.33
2023-04-14T09:01:25.199Z,2.30
2023-04-14T09:03:53.941Z,2.35
2023-04-14T09:06:23.800Z,2.45
2023-04-14T09:08:52.487Z,2.70
2023-04-14T09:11:19.745Z,2.53
2023-04-14T09:13:49.639Z,2.65
2023-04-14T09:16:17.884Z,2.83
2023-04-14T09:18:47.262Z,2.65
2023-04-14T09:21:49.253Z,2.95
2023-04-14T09:24:04.188Z,3.03
2023-04-14T09:26:31.394Z,3.10
2023-04-14T09:28:58.924Z,2.90
2023-04-14T09:31:27.227Z,3.00
2023-04-14T09:33:54.473Z,3.63
2023-04-14T09:36:24.055Z,4.50
2023-04-14T09:38:52.082Z,5.35
2023-04-14T09:41:31.613Z,3.90
2023-04-14T09:44:07.493Z,4.07
2023-04-14T09:49:03.393Z,3.03
2023-04-14T09:51:33.018Z,2.95
2023-04-14T09:54:05.285Z,2.47
2023-04-14T09:56:33.347Z,3.17
2023-04-14T09:59:04.329Z,3.60
2023-04-14T10:01:34.438Z,3.20
2023-04-14T10:04:04.341Z,3.00
2023-04-14T10:06:32.287Z,3.42
2023-04-14T10:09:00.165Z,3.33
2023-04-14T10:11:35.352Z,2.60
2023-04-14T10:14:05.773Z,3.20
2023-04-14T10:16:34.272Z,3.20
2023-04-14T10:19:02.669Z,4.22
2023-04-14T10:21:32.019Z,3.40
2023-04-14T10:24:00.903Z,4.72
2023-04-14T10:26:30.342Z,4.07
2023-04-14T10:28:58.069Z,3.38
2023-04-14T10:31:36.795Z,2.55
2023-04-14T10:34:08.927Z,3.47
2023-04-14T10:36:36.979Z,2.92
2023-04-14T10:39:05.640Z,7.55
2023-04-14T10:41:46.230Z,7.80
2023-04-14T10:44:28.608Z,6.60
2023-04-14T10:46:57.123Z,24.27
2023-04-14T10:49:49.331Z,12.35
2023-04-14T10:52:16.853Z,4.38
2023-04-14T10:55:08.275Z,3.25
2023-04-14T10:57:43.632Z,2.60
2023-04-14T11:00:25.208Z,3.08
2023-04-14T11:03:03.463Z,2.20
2023-04-14T11:05:34.188Z,2.13
2023-04-14T11:08:13.759Z,2.35
2023-04-14T11:10:42.826Z,2.30
2023-04-14T11:13:13.055Z,2.05
2023-04-14T11:15:46.060Z,2.42
2023-04-14T11:18:39.314Z,2.60
2023-04-14T11:21:13.611Z,2.40
2023-04-14T11:23:41.621Z,2.50
2023-04-14T11:26:10.555Z,4.10
2023-04-14T11:28:41.749Z,9.55
2023-04-14T11:31:10.241Z,5.22
2023-04-14T11:33:40.310Z,3.28
2023-04-14T11:36:11.138Z,2.55
2023-04-14T11:38:41.789Z,2.95
2023-04-14T11:41:10.091Z,5.63
2023-04-14T11:43:46.519Z,8.48
2023-04-14T11:46:13.771Z,3.70
2023-04-14T11:48:41.126Z,3.50
2023-04-14T11:51:08.857Z,2.97
2023-04-14T11:53:36.830Z,2.78
2023-04-14T11:56:06.343Z,3.03
2023-04-14T11:58:33.933Z,3.13
2023-04-14T12:01:02.252Z,2.70
2023-04-14T12:03:33.085Z,2.60
2023-04-14T12:06:01.899Z,2.92
2023-04-14T12:08:33.439Z,2.72
2023-04-14T12:11:17.535Z,2.85
2023-04-14T12:13:46.693Z,2.45
2023-04-14T12:16:15.345Z,2.58
2023-04-14T12:18:43.889Z,2.35
2023-04-14T12:21:16.387Z,2.53
2023-04-14T12:23:48.488Z,2.40
2023-04-14T12:26:17.433Z,2.40
2023-04-14T12:28:45.945Z,2.38
2023-04-14T12:31:13.232Z,2.33
2023-04-14T12:33:40.549Z,3.00
2023-04-14T12:36:12.565Z,2.38
2023-04-14T12:38:39.750Z,1.85
2023-04-14T12:41:06.986Z,2.10
2023-04-14T12:43:41.259Z,2.00
2023-04-14T12:46:08.414Z,1.92
2023-04-14T12:48:44.886Z,3.22
2023-04-14T12:51:14.451Z,2.13
2023-04-14T12:53:42.749Z,1.98
2023-04-14T12:56:24.230Z,2.08
2023-04-14T12:58:52.663Z,2.00
2023-04-14T13:01:20.940Z,1.65
2023-04-14T13:03:52.826Z,1.60
2023-04-14T13:06:23.054Z,1.48
2023-04-14T13:08:52.114Z,1.77
2023-04-14T13:11:21.779Z,1.58
2023-04-14T13:13:49.775Z,1.63
2023-04-14T13:16:31.512Z,1.60
2023-04-14T13:18:59.925Z,1.90
2023-04-14T13:21:27.339Z,1.40
2023-04-14T13:23:54.869Z,2.13
2023-04-14T13:26:22.652Z,2.00
2023-04-14T13:28:50.874Z,1.83
2023-04-14T13:31:19.381Z,2.00
2023-04-14T13:33:46.911Z,1.60
2023-04-14T13:36:14.222Z,1.60
2023-04-14T13:38:42.021Z,1.60
2023-04-14T13:41:09.133Z,1.58
2023-04-14T13:43:36.420Z,1.95
2023-04-14T13:46:03.473Z,2.15
2023-04-14T13:48:32.055Z,1.98
2023-04-14T13:50:59.643Z,2.17
2023-04-14T13:53:26.692Z,1.80
2023-04-14T13:55:54.184Z,3.22
2023-04-14T13:58:21.429Z,5.40
2023-04-14T14:00:50.732Z,6.10
2023-04-14T14:03:19.657Z,3.35
2023-04-14T14:05:47.268Z,2.85
2023-04-14T14:08:17.506Z,2.17
2023-04-14T14:10:45.486Z,2.38
2023-04-14T14:13:12.522Z,2.10
2023-04-14T14:15:39.493Z,1.95
2023-04-14T14:18:08.381Z,2.08
2023-04-14T14:20:36.380Z,2.00
2023-04-14T14:23:05.803Z,2.20
2023-04-14T14:25:34.331Z,3.50
2023-04-14T14:28:03.002Z,3.88
2023-04-14T14:30:30.059Z,2.88
2023-04-14T14:32:58.164Z,2.35
2023-04-14T14:35:25.462Z,2.30
2023-04-14T14:37:52.495Z,2.40
2023-04-14T14:40:19.639Z,2.70
2023-04-14T14:42:46.542Z,2.30
2023-04-14T14:45:13.637Z,2.22
2023-04-14T14:47:41.509Z,2.40
2023-04-14T14:50:09.101Z,2.30
2023-04-14T14:52:36.690Z,2.30
2023-04-14T14:55:05.273Z,2.88
2023-04-14T14:57:32.428Z,2.63
2023-04-14T14:59:59.757Z,2.80
2023-04-14T15:02:27.390Z,2.70
2023-04-14T15:04:54.723Z,2.35
2023-04-14T15:07:21.773Z,2.30
2023-04-14T15:09:50.065Z,2.60
2023-04-14T15:12:17.565Z,2.50
2023-04-14T15:14:44.857Z,2.65
2023-04-14T15:17:11.781Z,2.25
2023-04-14T15:19:38.907Z,2.72
2023-04-14T15:22:06.118Z,2.45
2023-04-14T15:24:34.377Z,2.50
2023-04-14T15:27:02.642Z,2.40
2023-04-14T15:29:30.922Z,2.50
2023-04-14T15:31:58.092Z,2.80
2023-04-14T15:34:25.360Z,3.35
2023-04-14T15:36:52.370Z,2.72
2023-04-14T15:39:19.377Z,3.10
2023-04-14T15:41:47.672Z,3.45
2023-04-14T15:44:14.767Z,3.80
2023-04-14T15:46:41.736Z,3.33
2023-04-14T15:49:10.179Z,3.08
2023-04-14T15:51:37.575Z,3.00
2023-04-14T15:54:05.308Z,2.70
2023-04-14T15:56:32.283Z,2.88
2023-04-14T15:58:59.288Z,2.63
2023-04-14T16:01:27.872Z,2.80
2023-04-14T16:03:56.005Z,2.65
2023-04-14T16:06:23.594Z,2.85
2023-04-14T16:08:52.852Z,3.15
2023-04-14T16:11:20.718Z,3.00
2023-04-14T16:13:47.926Z,2.67
2023-04-14T16:16:16.208Z,2.80
2023-04-14T16:18:43.327Z,2.50
2023-04-14T16:21:10.546Z,3.20
2023-04-14T16:23:37.605Z,3.08
2023-04-14T16:26:04.822Z,3.33
2023-04-14T16:28:32.180Z,3.10
2023-04-14T16:31:05.609Z,3.13
2023-04-14T16:33:32.863Z,3.15
2023-04-14T16:36:04.438Z,3.28
2023-04-14T16:38:31.854Z,3.35
2023-04-14T16:41:01.034Z,3.13
2023-04-14T16:43:28.621Z,2.60
2023-04-14T16:46:04.330Z,2.22
2023-04-14T16:48:32.681Z,2.80
2023-04-14T16:51:09.034Z,2.95
2023-04-14T16:53:38.826Z,2.88
2023-04-14T16:56:10.067Z,2.95
2023-04-14T16:58:38.064Z,2.75
2023-04-14T17:01:06.985Z,3.03
2023-04-14T17:03:34.434Z,3.22
2023-04-14T17:06:03.164Z,3.20
2023-04-14T17:08:30.167Z,2.55
2023-04-14T17:10:59.148Z,3.10
2023-04-14T17:13:27.956Z,2.30
2023-04-14T17:16:05.691Z,2.30
2023-04-14T17:18:35.778Z,2.17
2023-04-14T17:21:03.012Z,2.10
2023-04-14T17:23:30.020Z,2.28
2023-04-14T17:25:58.773Z,2.97
2023-04-14T17:28:27.327Z,2.85
2023-04-14T17:30:55.728Z,2.70
2023-04-14T17:33:27.373Z,2.70
2023-04-14T17:35:55.614Z,3.08
2023-04-14T17:38:23.618Z,2.90
2023-04-14T17:40:53.424Z,3.33
2023-04-14T17:43:21.081Z,3.22
2023-04-14T17:45:50.554Z,2.70
2023-04-14T17:48:20.892Z,2.72
2023-04-14T17:50:48.247Z,3.00
2023-04-14T17:53:16.472Z,2.88
2023-04-14T17:55:43.889Z,3.17
2023-04-14T17:58:12.218Z,3.47
2023-04-14T18:00:40.122Z,2.95
2023-04-14T18:03:07.567Z,3.00
2023-04-14T18:05:34.956Z,3.25
2023-04-14T18:08:03.838Z,3.40
2023-04-14T18:10:32.267Z,3.20
2023-04-14T18:13:02.546Z,3.08
2023-04-14T18:15:30.096Z,3.47
2023-04-14T18:17:57.453Z,3.20
2023-04-14T18:20:27.366Z,3.28
2023-04-14T18:22:54.893Z,3.33
2023-04-14T18:25:21.864Z,3.30
2023-04-14T18:30:19.443Z,3.08
2023-04-14T18:32:47.209Z,2.90
2023-04-14T18:35:15.828Z,3.22
2023-04-14T18:37:43.390Z,2.78
2023-04-14T18:40:11.780Z,2.92
2023-04-14T18:42:39.176Z,3.15
2023-04-14T18:45:06.875Z,3.10
2023-04-14T18:47:34.288Z,3.47
2023-04-14T18:50:01.468Z,4.22
2023-04-14T18:52:28.640Z,4.20
2023-04-14T18:54:56.199Z,4.25
2023-04-14T18:57:24.747Z,4.00
2023-04-14T18:59:51.791Z,3.75
2023-04-14T19:02:18.903Z,3.55
2023-04-14T19:04:47.983Z,2.63
2023-04-14T19:07:14.988Z,2.85
2023-04-14T19:09:42.066Z,2.60
2023-04-14T19:12:18.529Z,2.20
2023-04-14T19:14:54.421Z,2.60
2023-04-14T19:17:21.364Z,2.30
2023-04-14T19:19:48.432Z,2.22
2023-04-14T19:22:18.063Z,2.25
2023-04-14T19:24:47.593Z,2.30
2023-04-14T19:27:14.867Z,2.10
2023-04-14T19:29:41.897Z,1.88
2023-04-14T19:32:09.978Z,2.40
2023-04-14T19:34:37.223Z,2.33
2023-04-14T19:37:07.268Z,2.13
2023-04-14T19:39:35.225Z,2.20
2023-04-14T19:42:03.349Z,2.08
2023-04-14T19:44:30.360Z,2.50
2023-04-14T19:46:57.414Z,2.58
2023-04-14T19:49:24.794Z,2.10
2023-04-14T19:51:52.760Z,2.30
2023-04-14T19:54:20.463Z,2.90
2023-04-14T19:56:47.427Z,2.63
2023-04-14T19:59:14.420Z,2.50
2023-04-14T20:01:42.417Z,2.10
2023-04-14T20:04:12.343Z,2.28
2023-04-14T20:06:45.203Z,2.10
2023-04-14T20:09:12.251Z,1.80
2023-04-14T20:11:49.916Z,2.20
2023-04-14T20:14:16.886Z,1.80
2023-04-14T20:16:44.303Z,1.80
2023-04-14T20:19:13.897Z,1.65
2023-04-14T20:21:40.925Z,2.13
2023-04-14T20:24:07.998Z,1.77
2023-04-14T20:26:35.173Z,1.65
2023-04-14T20:29:02.816Z,1.55
2023-04-14T20:31:30.891Z,1.80
2023-04-14T20:34:00.563Z,1.60
2023-04-14T20:36:31.418Z,1.50
2023-04-14T20:39:00.107Z,1.63
2023-04-14T20:41:27.600Z,1.77
2023-04-14T20:43:54.538Z,1.80
2023-04-14T20:46:22.284Z,1.40
2023-04-14T20:48:49.591Z,1.70
2023-04-14T20:51:16.814Z,1.35
2023-04-14T20:53:43.827Z,1.55
2023-04-14T20:56:11.242Z,1.50
2023-04-14T20:58:39.750Z,1.52
2023-04-14T21:01:06.862Z,1.75
2023-04-14T21:03:34.872Z,1.60
2023-04-14T21:06:02.270Z,1.70
2023-04-14T21:08:29.940Z,1.67
2023-04-14T21:11:15.925Z,1.77
2023-04-14T21:15:27.010Z,1.85
2023-04-14T21:16:33.865Z,1.60
2023-04-14T21:19:02.449Z,1.73
2023-04-14T21:21:31.893Z,1.83
2023-04-14T21:23:59.174Z,1.65
2023-04-14T21:26:28.632Z,1.50
2023-04-14T21:28:56.557Z,1.60
2023-04-14T21:31:23.586Z,1.73
2023-04-14T21:33:50.519Z,1.88
2023-04-14T21:36:18.846Z,1.85
2023-04-14T21:38:45.830Z,1.60
2023-04-14T21:41:13.227Z,1.60
2023-04-14T21:43:40.444Z,1.80
2023-04-14T21:46:08.077Z,1.67
2023-04-14T21:48:35.227Z,1.50
2023-04-14T21:51:02.742Z,1.70
2023-04-14T21:53:30.031Z,1.30
2023-04-14T21:56:09.131Z,1.40
2023-04-14T21:58:38.080Z,1.50
2023-04-14T22:01:05.541Z,1.55
2023-04-14T22:03:33.400Z,1.50
2023-04-14T22:06:01.462Z,1.40
2023-04-14T22:08:28.415Z,1.88
2023-04-14T22:10:55.825Z,1.55
2023-04-14T22:13:23.701Z,1.60
2023-04-14T22:15:53.193Z,1.77
2023-04-14T22:18:22.032Z,1.70
2023-04-14T22:20:49.393Z,2.42
2023-04-14T22:23:17.185Z,1.80
2023-04-14T22:25:44.195Z,1.85
2023-04-14T22:28:11.186Z,1.98
2023-04-14T22:30:38.901Z,1.73
2023-04-14T22:33:07.022Z,1.83
2023-04-14T22:35:34.097Z,1.67
2023-04-14T22:38:01.388Z,1.83
2023-04-14T22:40:28.371Z,1.73
2023-04-14T22:42:55.452Z,1.73
2023-04-14T22:45:22.981Z,1.88
2023-04-14T22:47:49.911Z,2.17
2023-04-14T22:50:17.002Z,1.90
2023-04-14T22:52:43.958Z,1.60
2023-04-14T22:55:11.844Z,1.90
2023-04-14T22:57:38.931Z,1.70
2023-04-14T23:00:12.530Z,1.67
2023-04-14T23:02:42.272Z,1.63
2023-04-14T23:05:12.660Z,1.70
2023-04-14T23:07:40.133Z,1.70
2023-04-14T23:10:07.931Z,1.58
2023-04-14T23:12:35.908Z,1.70
2023-04-14T23:15:04.571Z,1.65
2023-04-14T23:17:32.790Z,1.60
2023-04-14T23:20:03.200Z,1.23
2023-04-14T23:22:31.088Z,1.67
2023-04-14T23:24:58.000Z,1.60
2023-04-14T23:27:24.880Z,1.60
2023-04-14T23:29:51.995Z,1.70
2023-04-14T23:32:18.945Z,1.60
2023-04-14T23:34:46.022Z,1.40
2023-04-14T23:37:13.165Z,1.70
2023-04-14T23:39:40.777Z,1.63
2023-04-14T23:42:08.634Z,1.70
2023-04-14T23:44:35.684Z,1.60
2023-04-14T23:47:02.876Z,1.42
2023-04-14T23:49:35.143Z,1.30
2023-04-14T23:52:04.582Z,1.52
2023-04-14T23:54:32.773Z,1.63
2023-04-14T23:56:59.826Z,1.40
2023-04-14T23:59:27.175Z,1.83
